sensor_id;sensor_type;location;lat;lon;timestamp;P1;durP1;ratioP1;P2;durP2;ratioP2
24685;SDS011;12804;51.176;4.452;2023-05-17T00:00:06;10.00;;;2.92;;
24685;SDS011;12804;51.176;4.452;2023-05-17T00:02:35;14.55;;;3.10;;
24685;SDS011;12804;51.176;4.452;2023-05-17T00:05:02;11.40;;;3.03;;
24685;SDS011;12804;51.176;4.452;2023-05-17T00:07:28;10.93;;;3.75;;
24685;SDS011;12804;51.176;4.452;2023-05-17T00:09:53;7.72;;;3.00;;
24685;SDS011;12804;51.176;4.452;2023-05-17T00:12:19;12.40;;;3.15;;
24685;SDS011;12804;51.176;4.452;2023-05-17T00:14:45;9.68;;;2.67;;
24685;SDS011;12804;51.176;4.452;2023-05-17T00:17:11;9.27;;;3.50;;
24685;SDS011;12804;51.176;4.452;2023-05-17T00:19:37;13.25;;;3.50;;
24685;SDS011;12804;51.176;4.452;2023-05-17T00:22:03;13.57;;;3.30;;
24685;SDS011;12804;51.176;4.452;2023-05-17T00:24:28;14.32;;;3.35;;
24685;SDS011;12804;51.176;4.452;2023-05-17T00:26:54;8.63;;;2.85;;
24685;SDS011;12804;51.176;4.452;2023-05-17T00:29:20;11.35;;;3.80;;
24685;SDS011;12804;51.176;4.452;2023-05-17T00:31:46;12.38;;;3.65;;
24685;SDS011;12804;51.176;4.452;2023-05-17T00:34:12;13.70;;;3.67;;
24685;SDS011;12804;51.176;4.452;2023-05-17T00:36:37;16.25;;;3.97;;
24685;SDS011;12804;51.176;4.452;2023-05-17T00:39:03;11.93;;;3.40;;
24685;SDS011;12804;51.176;4.452;2023-05-17T00:41:29;10.00;;;3.08;;
24685;SDS011;12804;51.176;4.452;2023-05-17T00:43:55;10.32;;;3.03;;
24685;SDS011;12804;51.176;4.452;2023-05-17T00:46:21;9.27;;;2.88;;
24685;SDS011;12804;51.176;4.452;2023-05-17T00:48:46;10.02;;;2.95;;
24685;SDS011;12804;51.176;4.452;2023-05-17T00:51:14;13.85;;;3.05;;
24685;SDS011;12804;51.176;4.452;2023-05-17T00:53:42;9.23;;;2.53;;
24685;SDS011;12804;51.176;4.452;2023-05-17T00:56:08;11.40;;;2.78;;
24685;SDS011;12804;51.176;4.452;2023-05-17T00:58:34;9.85;;;2.78;;
24685;SDS011;12804;51.176;4.452;2023-05-17T01:01:01;12.88;;;3.30;;
24685;SDS011;12804;51.176;4.452;2023-05-17T01:03:27;10.93;;;3.00;;
24685;SDS011;12804;51.176;4.452;2023-05-17T01:05:54;10.20;;;2.67;;
24685;SDS011;12804;51.176;4.452;2023-05-17T01:08:19;8.45;;;2.40;;
24685;SDS011;12804;51.176;4.452;2023-05-17T01:10:52;9.52;;;2.92;;
24685;SDS011;12804;51.176;4.452;2023-05-17T01:13:21;14.02;;;3.40;;
24685;SDS011;12804;51.176;4.452;2023-05-17T01:16:00;13.35;;;2.92;;
24685;SDS011;12804;51.176;4.452;2023-05-17T01:18:55;10.32;;;2.80;;
24685;SDS011;12804;51.176;4.452;2023-05-17T01:21:54;11.93;;;2.83;;
24685;SDS011;12804;51.176;4.452;2023-05-17T01:24:47;12.88;;;3.53;;
24685;SDS011;12804;51.176;4.452;2023-05-17T01:27:19;12.13;;;3.35;;
24685;SDS011;12804;51.176;4.452;2023-05-17T01:29:48;14.05;;;3.10;;
24685;SDS011;12804;51.176;4.452;2023-05-17T01:32:15;14.15;;;3.08;;
24685;SDS011;12804;51.176;4.452;2023-05-17T01:34:42;11.15;;;2.75;;
24685;SDS011;12804;51.176;4.452;2023-05-17T01:37:08;9.60;;;2.80;;
24685;SDS011;12804;51.176;4.452;2023-05-17T01:39:34;8.45;;;2.63;;
24685;SDS011;12804;51.176;4.452;2023-05-17T01:44:31;6.25;;;2.35;;
24685;SDS011;12804;51.176;4.452;2023-05-17T01:47:21;10.45;;;2.80;;
24685;SDS011;12804;51.176;4.452;2023-05-17T01:49:54;14.82;;;3.13;;
24685;SDS011;12804;51.176;4.452;2023-05-17T01:52:24;10.45;;;3.00;;
24685;SDS011;12804;51.176;4.452;2023-05-17T01:57:27;10.55;;;3.15;;
24685;SDS011;12804;51.176;4.452;2023-05-17T01:59:56;11.80;;;3.38;;
24685;SDS011;12804;51.176;4.452;2023-05-17T02:02:27;13.02;;;3.20;;
24685;SDS011;12804;51.176;4.452;2023-05-17T02:04:53;8.60;;;3.35;;
24685;SDS011;12804;51.176;4.452;2023-05-17T02:07:19;10.77;;;3.47;;
24685;SDS011;12804;51.176;4.452;2023-05-17T02:09:45;16.05;;;4.57;;
24685;SDS011;12804;51.176;4.452;2023-05-17T02:12:11;18.15;;;4.70;;
24685;SDS011;12804;51.176;4.452;2023-05-17T02:14:37;11.45;;;3.92;;
24685;SDS011;12804;51.176;4.452;2023-05-17T02:17:02;11.35;;;3.92;;
24685;SDS011;12804;51.176;4.452;2023-05-17T02:19:30;11.93;;;3.50;;
24685;SDS011;12804;51.176;4.452;2023-05-17T02:21:56;10.02;;;3.45;;
24685;SDS011;12804;51.176;4.452;2023-05-17T02:24:22;10.80;;;3.80;;
24685;SDS011;12804;51.176;4.452;2023-05-17T02:26:48;11.93;;;3.75;;
24685;SDS011;12804;51.176;4.452;2023-05-17T02:29:13;14.25;;;3.95;;
24685;SDS011;12804;51.176;4.452;2023-05-17T02:31:39;8.85;;;3.60;;
24685;SDS011;12804;51.176;4.452;2023-05-17T02:34:05;9.95;;;3.30;;
24685;SDS011;12804;51.176;4.452;2023-05-17T02:36:31;9.05;;;3.35;;
24685;SDS011;12804;51.176;4.452;2023-05-17T02:38:57;9.07;;;3.42;;
24685;SDS011;12804;51.176;4.452;2023-05-17T02:41:23;10.30;;;3.40;;
24685;SDS011;12804;51.176;4.452;2023-05-17T02:43:49;8.10;;;3.00;;
24685;SDS011;12804;51.176;4.452;2023-05-17T02:46:15;9.77;;;3.60;;
24685;SDS011;12804;51.176;4.452;2023-05-17T02:48:42;11.30;;;3.65;;
24685;SDS011;12804;51.176;4.452;2023-05-17T02:51:09;8.35;;;3.53;;
24685;SDS011;12804;51.176;4.452;2023-05-17T02:53:35;9.38;;;3.63;;
24685;SDS011;12804;51.176;4.452;2023-05-17T02:56:01;11.65;;;3.45;;
24685;SDS011;12804;51.176;4.452;2023-05-17T02:58:28;7.90;;;3.83;;
24685;SDS011;12804;51.176;4.452;2023-05-17T03:00:54;14.18;;;4.35;;
24685;SDS011;12804;51.176;4.452;2023-05-17T03:03:20;10.77;;;3.92;;
24685;SDS011;12804;51.176;4.452;2023-05-17T03:05:46;11.65;;;4.07;;
24685;SDS011;12804;51.176;4.452;2023-05-17T03:08:12;10.13;;;3.92;;
24685;SDS011;12804;51.176;4.452;2023-05-17T03:10:39;7.47;;;3.63;;
24685;SDS011;12804;51.176;4.452;2023-05-17T03:13:06;11.25;;;4.45;;
24685;SDS011;12804;51.176;4.452;2023-05-17T03:15:35;11.93;;;3.92;;
24685;SDS011;12804;51.176;4.452;2023-05-17T03:18:02;9.82;;;4.15;;
24685;SDS011;12804;51.176;4.452;2023-05-17T03:20:28;13.27;;;4.30;;
24685;SDS011;12804;51.176;4.452;2023-05-17T03:22:55;12.10;;;4.82;;
24685;SDS011;12804;51.176;4.452;2023-05-17T03:25:20;10.95;;;4.43;;
24685;SDS011;12804;51.176;4.452;2023-05-17T03:27:46;13.00;;;4.60;;
24685;SDS011;12804;51.176;4.452;2023-05-17T03:30:13;12.82;;;5.13;;
24685;SDS011;12804;51.176;4.452;2023-05-17T03:32:39;14.43;;;4.72;;
24685;SDS011;12804;51.176;4.452;2023-05-17T03:35:05;15.77;;;4.40;;
24685;SDS011;12804;51.176;4.452;2023-05-17T03:37:32;12.50;;;4.35;;
24685;SDS011;12804;51.176;4.452;2023-05-17T03:39:58;13.00;;;4.07;;
24685;SDS011;12804;51.176;4.452;2023-05-17T03:42:25;10.57;;;4.57;;
24685;SDS011;12804;51.176;4.452;2023-05-17T03:44:51;13.63;;;5.18;;
24685;SDS011;12804;51.176;4.452;2023-05-17T03:47:18;11.82;;;4.90;;
24685;SDS011;12804;51.176;4.452;2023-05-17T03:49:48;12.68;;;4.75;;
24685;SDS011;12804;51.176;4.452;2023-05-17T03:52:14;13.13;;;4.72;;
24685;SDS011;12804;51.176;4.452;2023-05-17T03:54:40;11.80;;;5.47;;
24685;SDS011;12804;51.176;4.452;2023-05-17T03:57:06;15.90;;;5.10;;
24685;SDS011;12804;51.176;4.452;2023-05-17T03:59:33;16.83;;;5.70;;
24685;SDS011;12804;51.176;4.452;2023-05-17T04:02:00;16.08;;;5.85;;
24685;SDS011;12804;51.176;4.452;2023-05-17T04:04:27;15.88;;;6.57;;
24685;SDS011;12804;51.176;4.452;2023-05-17T04:06:52;13.15;;;6.05;;
24685;SDS011;12804;51.176;4.452;2023-05-17T04:09:18;11.85;;;5.47;;
24685;SDS011;12804;51.176;4.452;2023-05-17T04:11:44;19.17;;;6.35;;
24685;SDS011;12804;51.176;4.452;2023-05-17T04:14:10;13.23;;;6.00;;
24685;SDS011;12804;51.176;4.452;2023-05-17T04:16:36;14.10;;;6.43;;
24685;SDS011;12804;51.176;4.452;2023-05-17T04:19:02;13.68;;;6.22;;
24685;SDS011;12804;51.176;4.452;2023-05-17T04:21:28;12.98;;;5.43;;
24685;SDS011;12804;51.176;4.452;2023-05-17T04:23:55;16.52;;;6.05;;
24685;SDS011;12804;51.176;4.452;2023-05-17T04:26:21;16.27;;;5.43;;
24685;SDS011;12804;51.176;4.452;2023-05-17T04:28:47;14.98;;;6.32;;
24685;SDS011;12804;51.176;4.452;2023-05-17T04:31:14;9.65;;;5.82;;
24685;SDS011;12804;51.176;4.452;2023-05-17T04:33:42;14.90;;;5.40;;
24685;SDS011;12804;51.176;4.452;2023-05-17T04:36:08;11.40;;;5.93;;
24685;SDS011;12804;51.176;4.452;2023-05-17T04:38:36;15.85;;;5.63;;
24685;SDS011;12804;51.176;4.452;2023-05-17T04:41:04;15.75;;;5.20;;
24685;SDS011;12804;51.176;4.452;2023-05-17T04:43:33;14.68;;;5.90;;
24685;SDS011;12804;51.176;4.452;2023-05-17T04:46:02;12.30;;;5.28;;
24685;SDS011;12804;51.176;4.452;2023-05-17T04:48:30;12.10;;;5.30;;
24685;SDS011;12804;51.176;4.452;2023-05-17T04:50:59;10.80;;;5.47;;
24685;SDS011;12804;51.176;4.452;2023-05-17T04:53:27;11.27;;;5.38;;
24685;SDS011;12804;51.176;4.452;2023-05-17T04:55:53;13.55;;;5.28;;
24685;SDS011;12804;51.176;4.452;2023-05-17T04:58:19;15.82;;;5.65;;
24685;SDS011;12804;51.176;4.452;2023-05-17T05:00:51;15.80;;;5.50;;
24685;SDS011;12804;51.176;4.452;2023-05-17T05:03:17;12.75;;;5.07;;
24685;SDS011;12804;51.176;4.452;2023-05-17T05:05:44;12.02;;;5.38;;
24685;SDS011;12804;51.176;4.452;2023-05-17T05:08:11;14.18;;;5.45;;
24685;SDS011;12804;51.176;4.452;2023-05-17T05:10:37;13.45;;;4.93;;
24685;SDS011;12804;51.176;4.452;2023-05-17T05:13:03;11.10;;;4.40;;
24685;SDS011;12804;51.176;4.452;2023-05-17T05:15:30;21.02;;;5.00;;
24685;SDS011;12804;51.176;4.452;2023-05-17T05:17:58;18.00;;;5.07;;
24685;SDS011;12804;51.176;4.452;2023-05-17T05:20:24;16.30;;;4.88;;
24685;SDS011;12804;51.176;4.452;2023-05-17T05:22:50;13.55;;;4.28;;
24685;SDS011;12804;51.176;4.452;2023-05-17T05:25:17;14.45;;;4.35;;
24685;SDS011;12804;51.176;4.452;2023-05-17T05:27:43;11.57;;;3.88;;
24685;SDS011;12804;51.176;4.452;2023-05-17T05:30:11;13.90;;;4.18;;
24685;SDS011;12804;51.176;4.452;2023-05-17T05:32:37;10.32;;;3.60;;
24685;SDS011;12804;51.176;4.452;2023-05-17T05:35:03;11.70;;;3.90;;
24685;SDS011;12804;51.176;4.452;2023-05-17T05:37:30;11.95;;;3.75;;
24685;SDS011;12804;51.176;4.452;2023-05-17T05:39:56;13.23;;;3.88;;
24685;SDS011;12804;51.176;4.452;2023-05-17T05:42:22;10.13;;;4.25;;
24685;SDS011;12804;51.176;4.452;2023-05-17T05:44:48;11.65;;;3.33;;
24685;SDS011;12804;51.176;4.452;2023-05-17T05:47:15;12.38;;;3.97;;
24685;SDS011;12804;51.176;4.452;2023-05-17T05:49:41;17.02;;;4.20;;
24685;SDS011;12804;51.176;4.452;2023-05-17T05:52:07;13.02;;;3.70;;
24685;SDS011;12804;51.176;4.452;2023-05-17T05:54:34;9.18;;;3.65;;
24685;SDS011;12804;51.176;4.452;2023-05-17T05:57:01;10.57;;;3.95;;
24685;SDS011;12804;51.176;4.452;2023-05-17T05:59:26;19.30;;;3.72;;
24685;SDS011;12804;51.176;4.452;2023-05-17T06:01:52;10.98;;;3.35;;
24685;SDS011;12804;51.176;4.452;2023-05-17T06:04:18;9.45;;;3.22;;
24685;SDS011;12804;51.176;4.452;2023-05-17T06:06:44;11.75;;;3.72;;
24685;SDS011;12804;51.176;4.452;2023-05-17T06:09:10;15.27;;;4.57;;
24685;SDS011;12804;51.176;4.452;2023-05-17T06:11:38;12.07;;;3.20;;
24685;SDS011;12804;51.176;4.452;2023-05-17T06:14:04;15.35;;;4.18;;
24685;SDS011;12804;51.176;4.452;2023-05-17T06:16:30;13.48;;;3.47;;
24685;SDS011;12804;51.176;4.452;2023-05-17T06:18:55;13.07;;;3.58;;
24685;SDS011;12804;51.176;4.452;2023-05-17T06:21:21;11.98;;;3.53;;
24685;SDS011;12804;51.176;4.452;2023-05-17T06:23:47;15.40;;;4.00;;
24685;SDS011;12804;51.176;4.452;2023-05-17T06:26:13;9.20;;;3.45;;
24685;SDS011;12804;51.176;4.452;2023-05-17T06:28:39;13.57;;;3.55;;
24685;SDS011;12804;51.176;4.452;2023-05-17T06:31:04;14.35;;;3.47;;
24685;SDS011;12804;51.176;4.452;2023-05-17T06:33:30;10.52;;;3.83;;
24685;SDS011;12804;51.176;4.452;2023-05-17T06:35:56;12.93;;;3.63;;
24685;SDS011;12804;51.176;4.452;2023-05-17T06:38:22;10.43;;;3.83;;
24685;SDS011;12804;51.176;4.452;2023-05-17T06:40:54;11.35;;;3.45;;
24685;SDS011;12804;51.176;4.452;2023-05-17T06:43:22;10.45;;;3.92;;
24685;SDS011;12804;51.176;4.452;2023-05-17T06:45:48;9.18;;;3.13;;
24685;SDS011;12804;51.176;4.452;2023-05-17T06:48:14;12.32;;;3.40;;
24685;SDS011;12804;51.176;4.452;2023-05-17T06:50:40;14.38;;;4.00;;
24685;SDS011;12804;51.176;4.452;2023-05-17T06:53:06;9.15;;;3.33;;
24685;SDS011;12804;51.176;4.452;2023-05-17T06:55:32;11.63;;;3.70;;
24685;SDS011;12804;51.176;4.452;2023-05-17T06:57:58;10.23;;;2.72;;
24685;SDS011;12804;51.176;4.452;2023-05-17T07:00:24;7.68;;;2.83;;
24685;SDS011;12804;51.176;4.452;2023-05-17T07:02:50;11.15;;;3.13;;
24685;SDS011;12804;51.176;4.452;2023-05-17T07:05:16;11.07;;;3.30;;
24685;SDS011;12804;51.176;4.452;2023-05-17T07:07:42;11.63;;;3.00;;
24685;SDS011;12804;51.176;4.452;2023-05-17T07:10:08;7.93;;;2.95;;
24685;SDS011;12804;51.176;4.452;2023-05-17T07:12:34;11.18;;;3.28;;
24685;SDS011;12804;51.176;4.452;2023-05-17T07:15:00;9.98;;;3.00;;
24685;SDS011;12804;51.176;4.452;2023-05-17T07:17:26;12.05;;;3.25;;
24685;SDS011;12804;51.176;4.452;2023-05-17T07:19:51;13.95;;;3.28;;
24685;SDS011;12804;51.176;4.452;2023-05-17T07:22:17;17.23;;;3.55;;
24685;SDS011;12804;51.176;4.452;2023-05-17T07:24:44;7.20;;;2.70;;
24685;SDS011;12804;51.176;4.452;2023-05-17T07:27:10;13.38;;;3.13;;
24685;SDS011;12804;51.176;4.452;2023-05-17T07:29:36;11.10;;;2.85;;
24685;SDS011;12804;51.176;4.452;2023-05-17T07:32:02;10.32;;;2.92;;
24685;SDS011;12804;51.176;4.452;2023-05-17T07:34:29;9.70;;;3.05;;
24685;SDS011;12804;51.176;4.452;2023-05-17T07:36:55;10.38;;;2.92;;
24685;SDS011;12804;51.176;4.452;2023-05-17T07:39:21;9.52;;;2.50;;
24685;SDS011;12804;51.176;4.452;2023-05-17T07:41:47;19.70;;;2.95;;
24685;SDS011;12804;51.176;4.452;2023-05-17T07:44:12;6.70;;;2.03;;
24685;SDS011;12804;51.176;4.452;2023-05-17T07:46:38;8.75;;;2.17;;
24685;SDS011;12804;51.176;4.452;2023-05-17T07:49:04;6.55;;;1.98;;
24685;SDS011;12804;51.176;4.452;2023-05-17T07:51:30;5.60;;;1.42;;
24685;SDS011;12804;51.176;4.452;2023-05-17T07:53:56;7.65;;;1.70;;
24685;SDS011;12804;51.176;4.452;2023-05-17T07:56:22;9.25;;;2.20;;
24685;SDS011;12804;51.176;4.452;2023-05-17T07:58:48;6.10;;;1.75;;
24685;SDS011;12804;51.176;4.452;2023-05-17T08:01:13;7.70;;;1.73;;
24685;SDS011;12804;51.176;4.452;2023-05-17T08:03:39;5.30;;;1.80;;
24685;SDS011;12804;51.176;4.452;2023-05-17T08:06:12;4.85;;;1.60;;
24685;SDS011;12804;51.176;4.452;2023-05-17T08:08:39;4.82;;;1.58;;
24685;SDS011;12804;51.176;4.452;2023-05-17T08:11:05;7.32;;;1.77;;
24685;SDS011;12804;51.176;4.452;2023-05-17T08:13:31;6.70;;;1.85;;
24685;SDS011;12804;51.176;4.452;2023-05-17T08:15:57;13.82;;;2.13;;
24685;SDS011;12804;51.176;4.452;2023-05-17T08:18:28;5.05;;;1.70;;
24685;SDS011;12804;51.176;4.452;2023-05-17T08:20:54;5.70;;;1.67;;
24685;SDS011;12804;51.176;4.452;2023-05-17T08:23:20;6.82;;;1.85;;
24685;SDS011;12804;51.176;4.452;2023-05-17T08:25:46;6.57;;;2.15;;
24685;SDS011;12804;51.176;4.452;2023-05-17T08:28:12;5.93;;;1.92;;
24685;SDS011;12804;51.176;4.452;2023-05-17T08:30:38;7.95;;;2.15;;
24685;SDS011;12804;51.176;4.452;2023-05-17T08:33:04;6.38;;;2.10;;
24685;SDS011;12804;51.176;4.452;2023-05-17T08:35:30;9.15;;;2.88;;
24685;SDS011;12804;51.176;4.452;2023-05-17T08:37:56;9.73;;;2.40;;
24685;SDS011;12804;51.176;4.452;2023-05-17T08:40:22;9.50;;;2.33;;
24685;SDS011;12804;51.176;4.452;2023-05-17T08:42:51;8.18;;;1.95;;
24685;SDS011;12804;51.176;4.452;2023-05-17T08:45:17;6.60;;;2.10;;
24685;SDS011;12804;51.176;4.452;2023-05-17T08:47:43;7.93;;;2.38;;
24685;SDS011;12804;51.176;4.452;2023-05-17T08:50:11;8.32;;;2.25;;
24685;SDS011;12804;51.176;4.452;2023-05-17T08:52:38;10.25;;;2.00;;
24685;SDS011;12804;51.176;4.452;2023-05-17T08:55:05;6.20;;;2.00;;
24685;SDS011;12804;51.176;4.452;2023-05-17T08:57:32;7.72;;;2.05;;
24685;SDS011;12804;51.176;4.452;2023-05-17T09:00:03;9.52;;;1.98;;
24685;SDS011;12804;51.176;4.452;2023-05-17T09:02:42;8.90;;;2.30;;
24685;SDS011;12804;51.176;4.452;2023-05-17T09:05:08;10.48;;;2.00;;
24685;SDS011;12804;51.176;4.452;2023-05-17T09:07:34;7.95;;;1.70;;
24685;SDS011;12804;51.176;4.452;2023-05-17T09:10:01;7.43;;;1.80;;
24685;SDS011;12804;51.176;4.452;2023-05-17T09:12:33;5.28;;;1.88;;
24685;SDS011;12804;51.176;4.452;2023-05-17T09:15:15;7.75;;;1.98;;
24685;SDS011;12804;51.176;4.452;2023-05-17T09:17:47;8.75;;;1.85;;
24685;SDS011;12804;51.176;4.452;2023-05-17T09:20:22;6.90;;;2.05;;
24685;SDS011;12804;51.176;4.452;2023-05-17T09:22:50;7.00;;;1.45;;
24685;SDS011;12804;51.176;4.452;2023-05-17T09:25:20;10.07;;;2.22;;
24685;SDS011;12804;51.176;4.452;2023-05-17T09:27:50;8.05;;;2.00;;
24685;SDS011;12804;51.176;4.452;2023-05-17T09:30:17;5.93;;;1.75;;
24685;SDS011;12804;51.176;4.452;2023-05-17T09:32:43;12.90;;;2.28;;
24685;SDS011;12804;51.176;4.452;2023-05-17T09:35:12;13.88;;;2.83;;
24685;SDS011;12804;51.176;4.452;2023-05-17T09:37:38;6.97;;;1.92;;
24685;SDS011;12804;51.176;4.452;2023-05-17T09:40:06;7.40;;;1.70;;
24685;SDS011;12804;51.176;4.452;2023-05-17T09:42:33;6.90;;;1.60;;
24685;SDS011;12804;51.176;4.452;2023-05-17T09:45:03;7.30;;;1.90;;
24685;SDS011;12804;51.176;4.452;2023-05-17T09:47:29;7.80;;;1.70;;
24685;SDS011;12804;51.176;4.452;2023-05-17T09:49:58;9.32;;;2.10;;
24685;SDS011;12804;51.176;4.452;2023-05-17T09:52:28;8.07;;;2.00;;
24685;SDS011;12804;51.176;4.452;2023-05-17T09:54:56;6.00;;;1.75;;
24685;SDS011;12804;51.176;4.452;2023-05-17T09:57:26;8.63;;;1.50;;
24685;SDS011;12804;51.176;4.452;2023-05-17T09:59:56;13.55;;;2.15;;
24685;SDS011;12804;51.176;4.452;2023-05-17T10:02:30;7.78;;;2.08;;
24685;SDS011;12804;51.176;4.452;2023-05-17T10:04:59;6.57;;;1.75;;
24685;SDS011;12804;51.176;4.452;2023-05-17T10:07:32;10.52;;;2.20;;
24685;SDS011;12804;51.176;4.452;2023-05-17T10:09:59;9.40;;;1.95;;
24685;SDS011;12804;51.176;4.452;2023-05-17T10:12:28;7.45;;;1.67;;
24685;SDS011;12804;51.176;4.452;2023-05-17T10:14:58;8.45;;;1.80;;
24685;SDS011;12804;51.176;4.452;2023-05-17T10:17:25;5.35;;;1.77;;
24685;SDS011;12804;51.176;4.452;2023-05-17T10:19:54;5.07;;;1.23;;
24685;SDS011;12804;51.176;4.452;2023-05-17T10:22:21;9.05;;;1.65;;
24685;SDS011;12804;51.176;4.452;2023-05-17T10:24:47;7.45;;;1.88;;
24685;SDS011;12804;51.176;4.452;2023-05-17T10:27:15;7.35;;;2.00;;
24685;SDS011;12804;51.176;4.452;2023-05-17T10:29:42;7.43;;;1.60;;
24685;SDS011;12804;51.176;4.452;2023-05-17T10:32:08;9.05;;;2.00;;
24685;SDS011;12804;51.176;4.452;2023-05-17T10:34:37;7.78;;;1.63;;
24685;SDS011;12804;51.176;4.452;2023-05-17T10:37:04;6.82;;;1.95;;
24685;SDS011;12804;51.176;4.452;2023-05-17T10:39:31;5.90;;;1.90;;
24685;SDS011;12804;51.176;4.452;2023-05-17T10:42:02;6.78;;;2.00;;
24685;SDS011;12804;51.176;4.452;2023-05-17T10:46:58;7.82;;;1.70;;
24685;SDS011;12804;51.176;4.452;2023-05-17T10:49:24;11.05;;;2.30;;
24685;SDS011;12804;51.176;4.452;2023-05-17T10:51:53;7.07;;;1.63;;
24685;SDS011;12804;51.176;4.452;2023-05-17T10:54:21;5.65;;;1.40;;
24685;SDS011;12804;51.176;4.452;2023-05-17T10:57:04;10.25;;;1.63;;
24685;SDS011;12804;51.176;4.452;2023-05-17T10:59:30;6.93;;;1.40;;
24685;SDS011;12804;51.176;4.452;2023-05-17T11:04:38;11.10;;;1.80;;
24685;SDS011;12804;51.176;4.452;2023-05-17T11:09:49;3.95;;;1.20;;
24685;SDS011;12804;51.176;4.452;2023-05-17T11:14:55;5.03;;;1.42;;
24685;SDS011;12804;51.176;4.452;2023-05-17T11:17:23;5.38;;;1.35;;
24685;SDS011;12804;51.176;4.452;2023-05-17T11:22:24;6.40;;;1.55;;
24685;SDS011;12804;51.176;4.452;2023-05-17T11:24:51;4.20;;;1.30;;
24685;SDS011;12804;51.176;4.452;2023-05-17T11:27:19;8.57;;;0.98;;
24685;SDS011;12804;51.176;4.452;2023-05-17T11:29:51;6.22;;;1.13;;
24685;SDS011;12804;51.176;4.452;2023-05-17T11:32:27;2.88;;;1.00;;
24685;SDS011;12804;51.176;4.452;2023-05-17T11:34:53;4.35;;;1.33;;
24685;SDS011;12804;51.176;4.452;2023-05-17T11:37:26;3.20;;;0.90;;
24685;SDS011;12804;51.176;4.452;2023-05-17T11:42:29;7.70;;;1.40;;
24685;SDS011;12804;51.176;4.452;2023-05-17T11:44:55;4.30;;;1.10;;
24685;SDS011;12804;51.176;4.452;2023-05-17T11:47:22;5.75;;;1.40;;
24685;SDS011;12804;51.176;4.452;2023-05-17T11:49:49;4.82;;;1.13;;
24685;SDS011;12804;51.176;4.452;2023-05-17T11:52:16;3.53;;;0.90;;
24685;SDS011;12804;51.176;4.452;2023-05-17T11:54:42;4.05;;;1.45;;
24685;SDS011;12804;51.176;4.452;2023-05-17T11:57:10;4.30;;;1.00;;
24685;SDS011;12804;51.176;4.452;2023-05-17T11:59:41;4.50;;;1.20;;
24685;SDS011;12804;51.176;4.452;2023-05-17T12:02:09;4.68;;;1.45;;
24685;SDS011;12804;51.176;4.452;2023-05-17T12:04:51;2.97;;;1.10;;
24685;SDS011;12804;51.176;4.452;2023-05-17T12:07:16;3.13;;;1.00;;
24685;SDS011;12804;51.176;4.452;2023-05-17T12:09:43;2.38;;;0.95;;
24685;SDS011;12804;51.176;4.452;2023-05-17T12:12:09;5.10;;;1.13;;
24685;SDS011;12804;51.176;4.452;2023-05-17T12:14:35;5.65;;;1.25;;
24685;SDS011;12804;51.176;4.452;2023-05-17T12:17:02;6.13;;;1.48;;
24685;SDS011;12804;51.176;4.452;2023-05-17T12:19:30;4.97;;;1.05;;
24685;SDS011;12804;51.176;4.452;2023-05-17T12:22:17;5.22;;;1.13;;
24685;SDS011;12804;51.176;4.452;2023-05-17T12:24:42;6.78;;;1.30;;
24685;SDS011;12804;51.176;4.452;2023-05-17T12:27:08;5.00;;;1.00;;
24685;SDS011;12804;51.176;4.452;2023-05-17T12:29:34;4.80;;;1.30;;
24685;SDS011;12804;51.176;4.452;2023-05-17T12:32:00;11.38;;;1.38;;
24685;SDS011;12804;51.176;4.452;2023-05-17T12:34:27;3.17;;;1.17;;
24685;SDS011;12804;51.176;4.452;2023-05-17T12:36:53;3.88;;;1.50;;
24685;SDS011;12804;51.176;4.452;2023-05-17T12:39:20;4.07;;;1.00;;
24685;SDS011;12804;51.176;4.452;2023-05-17T12:41:49;5.10;;;1.20;;
24685;SDS011;12804;51.176;4.452;2023-05-17T12:44:16;4.15;;;1.05;;
24685;SDS011;12804;51.176;4.452;2023-05-17T12:46:45;3.83;;;1.40;;
24685;SDS011;12804;51.176;4.452;2023-05-17T12:49:17;6.15;;;1.23;;
24685;SDS011;12804;51.176;4.452;2023-05-17T12:51:47;3.75;;;1.00;;
24685;SDS011;12804;51.176;4.452;2023-05-17T12:54:34;5.80;;;1.25;;
24685;SDS011;12804;51.176;4.452;2023-05-17T12:57:09;3.25;;;1.00;;
24685;SDS011;12804;51.176;4.452;2023-05-17T12:59:51;8.63;;;1.50;;
24685;SDS011;12804;51.176;4.452;2023-05-17T13:02:20;3.72;;;1.30;;
24685;SDS011;12804;51.176;4.452;2023-05-17T13:04:47;6.18;;;1.27;;
24685;SDS011;12804;51.176;4.452;2023-05-17T13:07:20;5.07;;;1.30;;
24685;SDS011;12804;51.176;4.452;2023-05-17T13:09:48;2.92;;;1.00;;
24685;SDS011;12804;51.176;4.452;2023-05-17T13:12:20;3.33;;;0.88;;
24685;SDS011;12804;51.176;4.452;2023-05-17T13:14:49;6.88;;;1.48;;
24685;SDS011;12804;51.176;4.452;2023-05-17T13:19:49;5.80;;;1.05;;
24685;SDS011;12804;51.176;4.452;2023-05-17T13:22:15;4.05;;;1.10;;
24685;SDS011;12804;51.176;4.452;2023-05-17T13:24:42;4.72;;;1.35;;
24685;SDS011;12804;51.176;4.452;2023-05-17T13:27:09;5.80;;;1.27;;
24685;SDS011;12804;51.176;4.452;2023-05-17T13:29:37;3.35;;;1.20;;
24685;SDS011;12804;51.176;4.452;2023-05-17T13:32:06;3.53;;;1.13;;
24685;SDS011;12804;51.176;4.452;2023-05-17T13:34:33;3.25;;;1.00;;
24685;SDS011;12804;51.176;4.452;2023-05-17T13:36:59;4.82;;;1.20;;
24685;SDS011;12804;51.176;4.452;2023-05-17T13:39:25;4.40;;;1.10;;
24685;SDS011;12804;51.176;4.452;2023-05-17T13:41:51;4.13;;;1.10;;
24685;SDS011;12804;51.176;4.452;2023-05-17T13:44:17;3.15;;;1.00;;
24685;SDS011;12804;51.176;4.452;2023-05-17T13:46:42;2.22;;;0.95;;
24685;SDS011;12804;51.176;4.452;2023-05-17T13:49:08;3.78;;;0.93;;
24685;SDS011;12804;51.176;4.452;2023-05-17T13:51:34;3.28;;;1.27;;
24685;SDS011;12804;51.176;4.452;2023-05-17T13:54:01;3.75;;;1.38;;
24685;SDS011;12804;51.176;4.452;2023-05-17T13:56:28;3.50;;;1.10;;
24685;SDS011;12804;51.176;4.452;2023-05-17T13:58:53;4.93;;;1.45;;
24685;SDS011;12804;51.176;4.452;2023-05-17T14:01:19;4.72;;;1.20;;
24685;SDS011;12804;51.176;4.452;2023-05-17T14:03:45;5.93;;;1.42;;
24685;SDS011;12804;51.176;4.452;2023-05-17T14:06:11;5.72;;;1.60;;
24685;SDS011;12804;51.176;4.452;2023-05-17T14:08:37;4.68;;;1.20;;
24685;SDS011;12804;51.176;4.452;2023-05-17T14:11:03;4.93;;;1.15;;
24685;SDS011;12804;51.176;4.452;2023-05-17T14:13:29;3.42;;;1.33;;
24685;SDS011;12804;51.176;4.452;2023-05-17T14:15:54;4.72;;;1.10;;
24685;SDS011;12804;51.176;4.452;2023-05-17T14:18:20;5.28;;;1.23;;
24685;SDS011;12804;51.176;4.452;2023-05-17T14:20:46;5.00;;;1.10;;
24685;SDS011;12804;51.176;4.452;2023-05-17T14:23:12;4.80;;;1.02;;
24685;SDS011;12804;51.176;4.452;2023-05-17T14:25:38;5.47;;;0.98;;
24685;SDS011;12804;51.176;4.452;2023-05-17T14:28:04;4.10;;;1.33;;
24685;SDS011;12804;51.176;4.452;2023-05-17T14:30:29;3.22;;;1.20;;
24685;SDS011;12804;51.176;4.452;2023-05-17T14:32:55;6.50;;;1.33;;
24685;SDS011;12804;51.176;4.452;2023-05-17T14:35:22;4.70;;;1.30;;
24685;SDS011;12804;51.176;4.452;2023-05-17T14:37:48;3.70;;;1.20;;
24685;SDS011;12804;51.176;4.452;2023-05-17T14:40:14;5.60;;;1.30;;
24685;SDS011;12804;51.176;4.452;2023-05-17T14:42:40;5.35;;;1.40;;
24685;SDS011;12804;51.176;4.452;2023-05-17T14:45:07;3.90;;;1.00;;
24685;SDS011;12804;51.176;4.452;2023-05-17T14:47:33;3.67;;;1.00;;
24685;SDS011;12804;51.176;4.452;2023-05-17T14:49:59;5.32;;;1.17;;
24685;SDS011;12804;51.176;4.452;2023-05-17T14:52:25;4.35;;;1.50;;
24685;SDS011;12804;51.176;4.452;2023-05-17T14:54:53;4.72;;;1.17;;
24685;SDS011;12804;51.176;4.452;2023-05-17T14:57:19;4.75;;;1.52;;
24685;SDS011;12804;51.176;4.452;2023-05-17T14:59:45;6.65;;;1.30;;
24685;SDS011;12804;51.176;4.452;2023-05-17T15:02:11;3.80;;;1.10;;
24685;SDS011;12804;51.176;4.452;2023-05-17T15:04:37;4.55;;;1.20;;